Terminal Aerodrome Forecast
Issued by NWS Pendleton, OR

Home | Current Version | Previous Version | Text Only | Print | Product List | Glossary On
Versions: 1 2 3 4 5 6 7 8 9 10 11 12 13 14 15 16
743
FTUS46 KPDT 200520
TAFPDT
TAF
KPDT 200520Z 2006/2106 24011KT P6SM SCT050 BKN070
     FM200700 25008KT 6SM -RA SCT035 OVC050
     FM201900 28012G22KT P6SM -SHRA SCT040 BKN060
     FM210200 25010KT P6SM BKN060=

USA.gov is the U.S. government's official web portal to all federal, state and local government web resources and services.